Al Jahrah, Kuwait
Current Conditions -  °F | °C
As of 2:55 PM on Saturday 25 Oct 2014 (Local Time) from KQGV Reporting Station
Clear Clear  
Wind Chill: 91°   Ceiling: Unl
Heat Index: 91°   Visibility: 6mi
Dew Point: 43°   Wind: 6mph
Humidity: 18%   Direction: 330°NNW
Pressure: 29.9"   Gusts: 17mph
Location:  29.33°N, 47.67°E
Report Text: KQGV 251155Z 33005G15KT 9999 CLR 33/06 A2990 RMK SLPNO QNH1013 PA +484 5////
Loading
Personal Weather Stations






























Interactive Weather Map
Tropical Storm Tracking
New forecast layout! Learn more

10-Day Weather Forecast

Advertisements
Track Severe Weather on mobile